createdAt,value
2017-08-06T00:00:11.655Z,1011.05
2017-08-06T00:00:52.053Z,1011.06
2017-08-06T00:01:32.478Z,1011.06
2017-08-06T00:02:13.016Z,1011.07
2017-08-06T00:02:53.458Z,1011.08
2017-08-06T00:03:33.886Z,1011.08
2017-08-06T00:04:14.275Z,1011.13
2017-08-06T00:04:54.797Z,1011.13
2017-08-06T00:05:35.237Z,1011.14
2017-08-06T00:06:15.689Z,1011.14
2017-08-06T00:06:56.125Z,1011.14
2017-08-06T00:07:36.499Z,1011.2
2017-08-06T00:08:17.010Z,1011.19
2017-08-06T00:08:57.583Z,1011.18
2017-08-06T00:09:37.948Z,1011.14
2017-08-06T00:10:18.393Z,1011.17
2017-08-06T00:10:58.827Z,1011.16
2017-08-06T00:11:39.253Z,1011.17
2017-08-06T00:12:19.718Z,1011.17
2017-08-06T00:13:00.149Z,1011.15
2017-08-06T00:13:40.480Z,1011.19
2017-08-06T00:14:20.928Z,1011.19
2017-08-06T00:15:01.264Z,1011.19
2017-08-06T00:15:41.683Z,1011.2
2017-08-06T00:16:22.079Z,1011.17
2017-08-06T00:17:02.543Z,1011.19
2017-08-06T00:17:43.004Z,1011.18
2017-08-06T00:18:23.444Z,1011.15
2017-08-06T00:19:03.847Z,1011.18
2017-08-06T00:19:44.215Z,1011.16
2017-08-06T00:20:24.792Z,1011.17
2017-08-06T00:21:05.187Z,1011.18
2017-08-06T00:21:45.606Z,1011.17
2017-08-06T00:22:25.963Z,1011.19
2017-08-06T00:23:06.399Z,1011.21
2017-08-06T00:23:46.843Z,1011.26
2017-08-06T00:24:27.272Z,1011.23
2017-08-06T00:25:07.663Z,1011.24
2017-08-06T00:25:48.169Z,1011.23
2017-08-06T00:26:28.566Z,1011.29
2017-08-06T00:27:08.980Z,1011.3
2017-08-06T00:27:49.420Z,1011.3
2017-08-06T00:28:30.015Z,1011.34
2017-08-06T00:29:10.456Z,1011.35
2017-08-06T00:29:50.919Z,1011.34
2017-08-06T00:34:01.112Z,1011.38
2017-08-06T00:45:48.702Z,1011.42
2017-08-06T00:50:40.758Z,1011.45
2017-08-06T00:51:35.218Z,1011.49
2017-08-06T00:52:31.783Z,1011.52
2017-08-06T00:53:31.876Z,1011.52
2017-08-06T00:57:20.359Z,1011.51
2017-08-06T00:58:00.733Z,1011.53
2017-08-06T00:58:41.062Z,1011.52
2017-08-06T00:59:21.452Z,1011.5
2017-08-06T01:00:01.905Z,1011.51
2017-08-06T01:00:42.432Z,1011.5
2017-08-06T01:01:22.883Z,1011.52
2017-08-06T01:02:03.272Z,1011.54
2017-08-06T01:02:43.680Z,1011.52
2017-08-06T01:03:24.210Z,1011.54
2017-08-06T01:04:04.602Z,1011.53
2017-08-06T01:04:45.008Z,1011.54
2017-08-06T01:05:25.412Z,1011.54
2017-08-06T01:06:05.991Z,1011.57
2017-08-06T01:06:46.352Z,1011.58
2017-08-06T01:07:26.823Z,1011.57
2017-08-06T01:08:07.255Z,1011.56
2017-08-06T01:08:47.642Z,1011.61
2017-08-06T01:09:28.313Z,1011.62
2017-08-06T01:10:08.787Z,1011.61
2017-08-06T01:10:49.070Z,1011.62
2017-08-06T01:11:29.812Z,1011.64
2017-08-06T01:12:09.961Z,1011.68
2017-08-06T01:12:50.518Z,1011.68
2017-08-06T01:13:31.062Z,1011.7
2017-08-06T01:14:11.453Z,1011.68
2017-08-06T01:14:51.949Z,1011.7
2017-08-06T01:15:32.303Z,1011.73
2017-08-06T01:16:12.743Z,1011.7
2017-08-06T01:16:53.837Z,1011.69
2017-08-06T01:17:34.341Z,1011.7
2017-08-06T01:18:14.715Z,1011.68
2017-08-06T01:18:55.278Z,1011.69
2017-08-06T01:19:35.706Z,1011.7
2017-08-06T01:20:16.350Z,1011.69
2017-08-06T01:20:56.638Z,1011.67
2017-08-06T01:21:37.099Z,1011.71
2017-08-06T01:22:17.526Z,1011.67
2017-08-06T01:22:58.084Z,1011.68
2017-08-06T01:23:38.467Z,1011.7
2017-08-06T01:24:18.877Z,1011.68
2017-08-06T01:24:59.405Z,1011.66
2017-08-06T01:25:39.882Z,1011.74
2017-08-06T01:26:20.319Z,1011.71
2017-08-06T01:27:00.713Z,1011.72
2017-08-06T01:27:41.100Z,1011.71
2017-08-06T01:28:21.512Z,1011.69
2017-08-06T01:29:02.172Z,1011.72
2017-08-06T01:29:42.369Z,1011.76
2017-08-06T01:30:22.772Z,1011.71
2017-08-06T01:31:03.158Z,1011.71
2017-08-06T01:31:43.599Z,1011.72
2017-08-06T01:32:24.053Z,1011.7
2017-08-06T01:33:04.504Z,1011.75
2017-08-06T01:33:44.846Z,1011.73
2017-08-06T01:34:25.265Z,1011.75
2017-08-06T01:35:05.643Z,1011.73
2017-08-06T01:35:46.083Z,1011.76
2017-08-06T01:36:26.480Z,1011.75
2017-08-06T01:37:06.955Z,1011.76
2017-08-06T01:37:47.309Z,1011.77
2017-08-06T01:38:27.731Z,1011.78
2017-08-06T01:39:08.289Z,1011.76
2017-08-06T01:39:48.975Z,1011.73
2017-08-06T01:40:29.805Z,1011.77
2017-08-06T01:41:10.252Z,1011.77
2017-08-06T01:41:50.711Z,1011.76
2017-08-06T01:51:36.606Z,1011.82
2017-08-06T01:52:24.994Z,1011.81
2017-08-06T01:53:13.912Z,1011.81
2017-08-06T01:59:11.489Z,1011.81
2017-08-06T02:01:54.084Z,1011.81
2017-08-06T02:11:36.787Z,1011.88
2017-08-06T02:12:28.659Z,1011.94
2017-08-06T02:13:17.965Z,1011.88
2017-08-06T02:15:47.712Z,1011.9
2017-08-06T02:17:43.907Z,1011.99
2017-08-06T02:18:34.839Z,1011.99
2017-08-06T02:32:17.805Z,1011.98
2017-08-06T02:33:06.354Z,1011.99
2017-08-06T02:33:56.888Z,1012.01
2017-08-06T03:25:51.506Z,1012.24
2017-08-06T03:29:32.795Z,1012.29
2017-08-06T04:00:59.917Z,1012.53
2017-08-06T04:01:40.791Z,1012.57
2017-08-06T04:02:21.348Z,1012.59
2017-08-06T04:03:02.096Z,1012.57
2017-08-06T04:03:42.466Z,1012.59
2017-08-06T04:04:23.173Z,1012.63
2017-08-06T04:05:03.643Z,1012.61
2017-08-06T04:05:44.321Z,1012.63
2017-08-06T04:06:24.611Z,1012.62
2017-08-06T04:07:04.975Z,1012.63
2017-08-06T04:07:45.288Z,1012.64
2017-08-06T04:08:25.957Z,1012.63
2017-08-06T04:09:06.359Z,1012.69
2017-08-06T04:09:47.073Z,1012.68
2017-08-06T04:10:27.498Z,1012.66
2017-08-06T04:11:08.059Z,1012.7
2017-08-06T04:11:48.368Z,1012.75
2017-08-06T04:12:28.913Z,1012.72
2017-08-06T04:13:09.522Z,1012.76
2017-08-06T04:13:49.885Z,1012.76
2017-08-06T04:14:30.524Z,1012.77
2017-08-06T04:15:10.848Z,1012.8
2017-08-06T04:15:51.369Z,1012.78
2017-08-06T04:16:32.288Z,1012.78
2017-08-06T04:17:13.116Z,1012.81
2017-08-06T04:17:53.660Z,1012.82
2017-08-06T04:18:34.129Z,1012.81
2017-08-06T04:19:14.449Z,1012.81
2017-08-06T04:19:54.788Z,1012.84
2017-08-06T04:20:35.931Z,1012.81
2017-08-06T04:21:16.232Z,1012.85
2017-08-06T04:21:56.541Z,1012.85
2017-08-06T04:22:36.979Z,1012.86
2017-08-06T04:23:17.450Z,1012.85
2017-08-06T04:23:58.329Z,1012.89
2017-08-06T04:24:38.717Z,1012.84
2017-08-06T04:25:19.184Z,1012.85
2017-08-06T04:25:59.468Z,1012.87
2017-08-06T04:26:40.035Z,1012.84
2017-08-06T04:27:20.269Z,1012.88
2017-08-06T04:28:00.709Z,1012.93
2017-08-06T04:28:41.089Z,1012.9
2017-08-06T04:29:21.449Z,1012.93
2017-08-06T04:30:01.900Z,1012.88
2017-08-06T04:30:42.346Z,1012.87
2017-08-06T04:31:22.845Z,1012.91
2017-08-06T04:32:03.176Z,1012.88
2017-08-06T04:32:43.502Z,1012.9
2017-08-06T04:33:23.857Z,1012.92
2017-08-06T04:34:04.401Z,1012.92
2017-08-06T04:34:44.885Z,1012.91
2017-08-06T04:35:25.488Z,1012.92
2017-08-06T04:36:05.865Z,1012.89
2017-08-06T04:36:46.352Z,1012.97
2017-08-06T04:37:26.871Z,1012.93
2017-08-06T04:38:07.348Z,1012.93
2017-08-06T04:38:48.532Z,1012.97
2017-08-06T04:39:28.822Z,1012.98
2017-08-06T04:40:09.305Z,1012.99
2017-08-06T04:40:49.776Z,1012.98
2017-08-06T04:41:29.950Z,1012.99
2017-08-06T04:42:10.631Z,1013.01
2017-08-06T04:42:50.886Z,1013.01
2017-08-06T04:43:31.407Z,1012.98
2017-08-06T04:44:11.825Z,1013.04
2017-08-06T04:44:52.836Z,1013.04
2017-08-06T04:45:33.549Z,1013.04
2017-08-06T04:46:13.737Z,1013.05
2017-08-06T04:46:54.385Z,1013.08
2017-08-06T04:47:34.679Z,1013.1
2017-08-06T04:48:15.307Z,1013.05
2017-08-06T04:48:57.548Z,1013.11
2017-08-06T04:49:38.718Z,1013.1
2017-08-06T04:50:19.287Z,1013.13
2017-08-06T04:50:59.688Z,1013.14
2017-08-06T04:51:40.469Z,1013.12
2017-08-06T04:52:24.324Z,1013.13
2017-08-06T04:53:04.436Z,1013.12
2017-08-06T04:53:44.979Z,1013.14
2017-08-06T04:54:27.163Z,1013.15
2017-08-06T04:55:07.624Z,1013.15
2017-08-06T04:55:54.079Z,1013.24
2017-08-06T04:56:35.256Z,1013.21
2017-08-06T04:57:18.247Z,1013.18
2017-08-06T04:58:00.471Z,1013.21
2017-08-06T04:58:41.016Z,1013.19
2017-08-06T04:59:21.981Z,1013.18
2017-08-06T05:00:05.095Z,1013.23
2017-08-06T05:00:47.997Z,1013.21
2017-08-06T05:01:31.182Z,1013.27
2017-08-06T05:02:11.882Z,1013.28
2017-08-06T05:02:52.413Z,1013.26
2017-08-06T05:03:33.511Z,1013.28
2017-08-06T05:04:15.051Z,1013.35
2017-08-06T05:05:05.684Z,1013.32
2017-08-06T05:18:52.635Z,1013.44
2017-08-06T05:22:27.439Z,1013.52
2017-08-06T05:26:14.845Z,1013.51
2017-08-06T05:27:03.744Z,1013.54
2017-08-06T05:27:52.374Z,1013.6
2017-08-06T05:28:40.415Z,1013.61
2017-08-06T05:29:29.004Z,1013.65
2017-08-06T05:35:02.074Z,1013.73
2017-08-06T05:48:39.446Z,1013.96
2017-08-06T05:49:19.730Z,1013.95
2017-08-06T05:50:00.404Z,1013.96
2017-08-06T05:50:40.833Z,1013.97
2017-08-06T05:51:21.384Z,1013.95
2017-08-06T05:52:01.812Z,1014.03
2017-08-06T05:52:42.274Z,1014.06
2017-08-06T05:53:22.836Z,1014.04
2017-08-06T05:54:03.376Z,1014.03
2017-08-06T05:54:43.742Z,1014.08
2017-08-06T05:55:24.263Z,1014.11
2017-08-06T05:56:04.642Z,1014.11
2017-08-06T05:56:45.057Z,1014.1
2017-08-06T05:57:25.420Z,1014.05
2017-08-06T05:58:05.810Z,1014.08
2017-08-06T05:58:46.259Z,1014.13
2017-08-06T06:00:46.001Z,1014.24
2017-08-06T06:01:26.503Z,1014.25
2017-08-06T06:02:06.948Z,1014.29
2017-08-06T06:02:47.337Z,1014.31
2017-08-06T06:03:27.758Z,1014.27
2017-08-06T06:04:08.237Z,1014.32
2017-08-06T06:04:48.698Z,1014.32
2017-08-06T06:05:29.070Z,1014.31
2017-08-06T06:09:45.672Z,1014.19
2017-08-06T06:10:26.015Z,1014.27
2017-08-06T06:11:06.435Z,1014.2
2017-08-06T06:11:46.908Z,1014.27
2017-08-06T06:12:27.257Z,1014.26
2017-08-06T06:13:07.624Z,1014.23
2017-08-06T06:13:48.061Z,1014.27
2017-08-06T06:14:28.478Z,1014.23
2017-08-06T06:15:08.928Z,1014.25
2017-08-06T06:15:49.323Z,1014.22
2017-08-06T06:16:29.726Z,1014.25
2017-08-06T06:17:10.107Z,1014.25
2017-08-06T06:17:50.449Z,1014.27
2017-08-06T06:18:30.896Z,1014.25
2017-08-06T06:19:11.300Z,1014.32
2017-08-06T06:19:51.807Z,1014.33
2017-08-06T06:20:32.228Z,1014.34
2017-08-06T06:21:12.742Z,1014.35
2017-08-06T06:21:53.142Z,1014.36
2017-08-06T06:22:33.586Z,1014.37
2017-08-06T06:23:13.982Z,1014.4
2017-08-06T06:23:54.486Z,1014.41
2017-08-06T06:24:35.013Z,1014.38
2017-08-06T06:25:15.578Z,1014.46
2017-08-06T06:25:55.957Z,1014.45
2017-08-06T06:26:36.483Z,1014.47
2017-08-06T06:27:16.927Z,1014.49
2017-08-06T06:27:57.409Z,1014.5
2017-08-06T06:28:37.918Z,1014.49
2017-08-06T06:29:18.349Z,1014.53
2017-08-06T06:29:58.844Z,1014.53
2017-08-06T06:30:39.334Z,1014.56
2017-08-06T06:31:19.773Z,1014.58
2017-08-06T06:32:00.171Z,1014.62
2017-08-06T06:32:40.621Z,1014.68
2017-08-06T06:33:21.182Z,1014.71
2017-08-06T06:34:01.589Z,1014.75
2017-08-06T06:34:41.990Z,1014.75
2017-08-06T06:35:22.531Z,1014.76
2017-08-06T06:36:02.833Z,1014.85
2017-08-06T06:36:43.373Z,1014.91
2017-08-06T06:37:23.826Z,1014.86
2017-08-06T06:38:04.273Z,1014.83
2017-08-06T06:38:44.772Z,1014.82
2017-08-06T06:39:25.110Z,1014.87
2017-08-06T06:40:05.613Z,1014.87
2017-08-06T06:40:46.086Z,1014.82
2017-08-06T06:41:26.426Z,1014.82
2017-08-06T06:42:06.886Z,1014.8
2017-08-06T06:42:47.395Z,1014.81
2017-08-06T06:43:27.773Z,1014.82
2017-08-06T06:44:08.232Z,1014.84
2017-08-06T06:44:48.659Z,1014.82
2017-08-06T06:45:29.060Z,1014.8
2017-08-06T06:46:09.555Z,1014.83
2017-08-06T06:46:49.852Z,1014.82
2017-08-06T06:47:30.258Z,1014.81
2017-08-06T06:48:10.637Z,1014.82
2017-08-06T06:48:51.134Z,1014.85
2017-08-06T06:49:31.502Z,1014.83
2017-08-06T06:50:11.902Z,1014.89
2017-08-06T06:50:52.317Z,1014.86
2017-08-06T06:51:32.728Z,1014.91
2017-08-06T06:52:13.115Z,1014.89
2017-08-06T06:52:53.581Z,1014.92
2017-08-06T06:53:33.989Z,1014.93
2017-08-06T06:54:14.467Z,1014.93
2017-08-06T06:54:54.798Z,1014.84
2017-08-06T06:55:35.224Z,1014.77
2017-08-06T06:56:15.647Z,1014.76
2017-08-06T06:56:56.116Z,1014.77
2017-08-06T06:57:36.485Z,1014.77
2017-08-06T06:58:16.944Z,1014.75
2017-08-06T06:58:57.301Z,1014.74
2017-08-06T06:59:37.749Z,1014.76
2017-08-06T07:00:18.151Z,1014.76
2017-08-06T07:00:58.602Z,1014.77
2017-08-06T07:01:39.022Z,1014.78
2017-08-06T07:02:19.491Z,1014.78
2017-08-06T07:02:59.872Z,1014.8
2017-08-06T07:03:40.346Z,1014.82
2017-08-06T07:04:20.842Z,1014.88
2017-08-06T07:05:01.187Z,1014.96
2017-08-06T07:05:41.626Z,1015.01
2017-08-06T07:08:09.395Z,1015
2017-08-06T07:08:49.690Z,1014.96
2017-08-06T07:09:30.179Z,1014.97
2017-08-06T07:10:10.553Z,1014.96
2017-08-06T07:10:50.972Z,1014.97
2017-08-06T07:11:31.340Z,1014.97
2017-08-06T07:12:11.809Z,1015
2017-08-06T07:12:52.162Z,1014.98
2017-08-06T07:13:32.614Z,1015.05
2017-08-06T07:14:13.046Z,1015.05
2017-08-06T07:14:53.402Z,1015.08
2017-08-06T07:15:33.828Z,1015.08
2017-08-06T07:16:14.251Z,1015.16
2017-08-06T07:16:54.713Z,1015.26
2017-08-06T07:17:35.090Z,1015.28
2017-08-06T07:18:15.510Z,1015.26
2017-08-06T07:18:55.930Z,1015.11
2017-08-06T07:19:36.360Z,1015.03
2017-08-06T07:20:16.779Z,1015.09
2017-08-06T07:20:57.164Z,1015.13
2017-08-06T07:21:37.620Z,1015.19
2017-08-06T07:22:18.008Z,1015.29
2017-08-06T07:22:58.462Z,1015.28
2017-08-06T07:23:38.850Z,1015.27
2017-08-06T07:24:19.242Z,1015.24
2017-08-06T07:24:59.601Z,1015.3
2017-08-06T07:25:40.086Z,1015.19
2017-08-06T07:26:20.513Z,1015.19
2017-08-06T07:27:01.029Z,1015.15
2017-08-06T07:27:41.463Z,1015.11
2017-08-06T07:28:21.993Z,1015.16
2017-08-06T07:29:02.306Z,1015.26
2017-08-06T07:29:42.722Z,1015.37
2017-08-06T07:30:23.130Z,1015.27
2017-08-06T07:31:03.591Z,1015.52
2017-08-06T07:31:44.024Z,1015.47
2017-08-06T07:32:24.398Z,1015.38
2017-08-06T07:34:33.761Z,1015.27
2017-08-06T07:38:08.536Z,1015.13
2017-08-06T07:38:48.906Z,1015.25
2017-08-06T07:39:29.303Z,1015.44
2017-08-06T07:40:09.684Z,1015.73
2017-08-06T07:40:50.073Z,1015.7
2017-08-06T07:41:30.508Z,1015.44
2017-08-06T07:42:10.938Z,1015.34
2017-08-06T07:42:51.321Z,1015.27
2017-08-06T07:43:31.766Z,1015.22
2017-08-06T07:44:12.181Z,1015.12
2017-08-06T07:44:52.520Z,1015.07
2017-08-06T07:45:32.929Z,1015.02
2017-08-06T07:46:13.322Z,1015.02
2017-08-06T07:46:53.793Z,1015.02
2017-08-06T07:47:34.174Z,1015.07
2017-08-06T07:48:14.591Z,1015.14
2017-08-06T07:48:55.012Z,1015.25
2017-08-06T07:49:35.387Z,1015.31
2017-08-06T07:50:15.806Z,1015.4
2017-08-06T07:50:56.182Z,1015.74
2017-08-06T07:51:36.604Z,1015.73
2017-08-06T07:52:16.990Z,1015.56
2017-08-06T07:52:57.429Z,1016.26
2017-08-06T07:53:37.864Z,1016.52
2017-08-06T07:54:18.240Z,1016.46
2017-08-06T07:54:58.678Z,1016.54
2017-08-06T07:55:39.103Z,1016.5
2017-08-06T07:56:19.512Z,1015.55
2017-08-06T07:56:59.986Z,1015.36
2017-08-06T07:57:40.608Z,1015.38
2017-08-06T07:58:21.396Z,1015.51
2017-08-06T08:02:16.415Z,1015.29
2017-08-06T08:02:56.817Z,1015.46
2017-08-06T08:03:37.140Z,1015.26
2017-08-06T08:04:17.654Z,1015.24
2017-08-06T08:04:58.061Z,1015.23
2017-08-06T08:05:38.437Z,1015.27
2017-08-06T08:06:18.834Z,1015.42
2017-08-06T08:06:59.241Z,1016.53
2017-08-06T08:07:39.625Z,1016.61
2017-08-06T08:08:20.002Z,1016.66
2017-08-06T08:09:00.413Z,1016.67
2017-08-06T08:09:40.920Z,1016.59
2017-08-06T08:10:21.387Z,1016.75
2017-08-06T08:11:01.754Z,1016.8
2017-08-06T08:11:42.162Z,1016.85
2017-08-06T08:12:22.529Z,1016.88
2017-08-06T08:13:02.994Z,1016.96
2017-08-06T08:13:43.324Z,1017.04
2017-08-06T08:14:23.773Z,1017.18
2017-08-06T08:15:04.128Z,1017.23
2017-08-06T08:15:44.530Z,1016.93
2017-08-06T08:16:24.999Z,1017.04
2017-08-06T08:17:05.369Z,1017.31
2017-08-06T08:19:45.975Z,1017.37
2017-08-06T08:20:44.676Z,1017.53
2017-08-06T08:21:45.315Z,1017.58
2017-08-06T08:22:47.239Z,1017.56
2017-08-06T08:23:42.117Z,1015.27
2017-08-06T08:24:37.501Z,1017.31
2017-08-06T08:25:33.161Z,1018.2
2017-08-06T08:26:32.802Z,1018.27
2017-08-06T08:27:33.052Z,1018.89
2017-08-06T08:28:32.771Z,1019.36
2017-08-06T08:29:27.703Z,1018.6
2017-08-06T08:30:22.318Z,1019.23
2017-08-06T08:31:16.552Z,1018.44
2017-08-06T08:32:09.133Z,1015.9
2017-08-06T08:32:52.750Z,1015.78
2017-08-06T08:33:33.187Z,1015.67
2017-08-06T08:34:13.588Z,1015.69
2017-08-06T08:34:53.976Z,1015.64
2017-08-06T08:35:34.433Z,1015.66
2017-08-06T08:36:14.874Z,1018.97
2017-08-06T08:36:55.253Z,1016.62
2017-08-06T08:37:35.815Z,1015.24
2017-08-06T08:38:16.319Z,1015.25
2017-08-06T08:38:56.797Z,1015.32
2017-08-06T08:39:37.156Z,1015.49
2017-08-06T08:40:17.655Z,1016.38
2017-08-06T08:40:58.161Z,1018.77
2017-08-06T08:41:38.548Z,1022.01
2017-08-06T08:42:18.926Z,1022.46
2017-08-06T08:42:59.391Z,1022.99
2017-08-06T08:43:39.820Z,1023.42
2017-08-06T08:44:20.168Z,1023.69
2017-08-06T08:45:00.618Z,1024.3
2017-08-06T08:45:41.049Z,1024.96
2017-08-06T08:46:21.438Z,1025.56
2017-08-06T08:47:01.976Z,1026.54
2017-08-06T08:47:42.349Z,1026.88
2017-08-06T08:48:22.744Z,1027.44
2017-08-06T08:49:03.191Z,1027.84
2017-08-06T08:49:43.633Z,1028.32
2017-08-06T08:50:24.091Z,1028.54
2017-08-06T08:51:04.449Z,1029.06
2017-08-06T08:51:44.884Z,1029.48
2017-08-06T08:52:25.337Z,1030.42
2017-08-06T08:53:05.706Z,1031.12
2017-08-06T08:53:46.211Z,1032.07
2017-08-06T08:54:26.658Z,1032.42
2017-08-06T08:55:07.112Z,1032.5
2017-08-06T08:55:47.463Z,1032.75
2017-08-06T08:56:27.836Z,1033.38
2017-08-06T08:57:08.396Z,1034.06
2017-08-06T08:57:48.762Z,1034.4
2017-08-06T08:58:29.227Z,1034.26
2017-08-06T08:59:09.658Z,1034.87
2017-08-06T08:59:50.061Z,1034.97
2017-08-06T09:00:30.451Z,1035.45
2017-08-06T09:01:11.183Z,1035.33
2017-08-06T09:01:51.586Z,1036.81
2017-08-06T09:02:32.152Z,1036.62
2017-08-06T09:03:12.494Z,1036.7
2017-08-06T09:03:52.880Z,1037.19
2017-08-06T09:04:33.377Z,1037
2017-08-06T09:05:13.832Z,1037.84
2017-08-06T09:05:54.295Z,1037.85
2017-08-06T09:06:34.743Z,1039.19
2017-08-06T09:07:15.129Z,1039.35
2017-08-06T09:07:55.569Z,1039.23
2017-08-06T09:08:36.169Z,1040.21
2017-08-06T09:09:16.723Z,1041.07
2017-08-06T09:09:57.172Z,1041.33
2017-08-06T09:10:37.823Z,1039.51
2017-08-06T09:11:18.223Z,1040.93
2017-08-06T09:11:58.754Z,1041.3
2017-08-06T09:12:39.182Z,1042.7
2017-08-06T09:13:19.551Z,1033.23
2017-08-06T09:14:00.039Z,1041.1
2017-08-06T09:14:40.386Z,1040.84
2017-08-06T09:15:20.820Z,1029.33
2017-08-06T09:16:01.175Z,1031.75
2017-08-06T09:16:41.662Z,1044.34
2017-08-06T09:17:22.200Z,1043.92
2017-08-06T09:18:02.589Z,1043.09
2017-08-06T09:18:43.233Z,1039.41
2017-08-06T09:19:23.621Z,1023.31
2017-08-06T09:20:04.055Z,1047.98
2017-08-06T09:20:44.609Z,1047.23
2017-08-06T09:21:25.291Z,1048.03
2017-08-06T09:22:05.699Z,1048.78
2017-08-06T09:22:46.126Z,1049.48
2017-08-06T09:23:26.567Z,1048.65
2017-08-06T09:24:07.003Z,1048.82
2017-08-06T09:24:47.399Z,1048
2017-08-06T09:25:27.833Z,1047.74
2017-08-06T09:26:08.256Z,1047.23
2017-08-06T09:26:48.632Z,1048.04
2017-08-06T09:27:29.064Z,1046.83
2017-08-06T09:28:09.451Z,1048.76
2017-08-06T09:28:49.945Z,1048.96
2017-08-06T09:29:30.329Z,1048.33
2017-08-06T09:30:10.758Z,1047.78
2017-08-06T09:30:51.270Z,1047.08
2017-08-06T09:31:31.638Z,1047.91
2017-08-06T09:32:11.992Z,1047.72
2017-08-06T09:32:52.454Z,1048.51
2017-08-06T09:33:32.865Z,1048.78
2017-08-06T09:34:13.343Z,1049.47
2017-08-06T09:34:53.693Z,1049.5
2017-08-06T09:35:34.123Z,1049.64
2017-08-06T09:36:14.678Z,1049.77
2017-08-06T09:36:55.119Z,1049.99
2017-08-06T09:37:35.486Z,1049.97
2017-08-06T09:38:15.911Z,1049.22
2017-08-06T09:38:56.475Z,1048.92
2017-08-06T09:39:36.818Z,1048.27
2017-08-06T09:40:17.233Z,1047.93
2017-08-06T09:40:57.698Z,1048.02
2017-08-06T09:41:38.074Z,1047.29
2017-08-06T09:42:18.504Z,1047.22
2017-08-06T09:42:58.902Z,1047.13
2017-08-06T09:43:39.479Z,1048.5
2017-08-06T09:44:19.907Z,1049.9
2017-08-06T09:45:00.431Z,1049.62
2017-08-06T09:45:40.919Z,1049.67
2017-08-06T09:46:21.352Z,1049.06
2017-08-06T09:47:01.752Z,1049.7
2017-08-06T09:47:42.194Z,1050.08
2017-08-06T09:48:22.696Z,1050.31
2017-08-06T09:49:03.044Z,1050.07
2017-08-06T09:49:44.325Z,1050.21
2017-08-06T09:50:23.888Z,1050.79
2017-08-06T09:51:04.254Z,1050.61
2017-08-06T09:51:44.705Z,1049.88
2017-08-06T09:52:25.140Z,1049.89
2017-08-06T09:53:05.603Z,1050.55
2017-08-06T09:53:46.038Z,1050.29
2017-08-06T09:54:26.573Z,1043.56
2017-08-06T09:55:07.359Z,1018.27
2017-08-06T09:55:47.396Z,1016.62
2017-08-06T09:56:27.815Z,1016.12
2017-08-06T09:57:08.204Z,1016.06
2017-08-06T09:57:48.722Z,1015.85
2017-08-06T09:58:29.082Z,1015.83
2017-08-06T09:59:09.663Z,1015.7
2017-08-06T09:59:50.030Z,1015.61
2017-08-06T10:00:30.429Z,1015.61
2017-08-06T10:01:10.939Z,1015.65
2017-08-06T10:01:51.327Z,1019.77
2017-08-06T10:02:31.683Z,1033.46
2017-08-06T10:03:12.165Z,1028.68
2017-08-06T10:03:52.597Z,1049.41
2017-08-06T10:04:33.017Z,1049.46
2017-08-06T10:05:13.413Z,1049.83
2017-08-06T10:05:53.798Z,1050
2017-08-06T10:06:34.252Z,1050.29
2017-08-06T10:07:14.658Z,1051.23
2017-08-06T10:07:55.071Z,1051.02
2017-08-06T10:08:35.585Z,1050.83
2017-08-06T10:09:15.998Z,1049.99
2017-08-06T10:09:56.322Z,1049.13
2017-08-06T10:10:36.746Z,1049.1
2017-08-06T10:11:17.245Z,1048.83
2017-08-06T10:11:57.758Z,1048.78
2017-08-06T10:12:38.166Z,1047.77
2017-08-06T10:13:18.603Z,1046.9
2017-08-06T10:13:59.066Z,1045.65
2017-08-06T10:14:39.477Z,1045.26
2017-08-06T10:15:19.874Z,1045.74
2017-08-06T10:16:00.438Z,1045.67
2017-08-06T10:16:40.709Z,1045.3
2017-08-06T10:17:21.201Z,1044.88
2017-08-06T10:18:01.582Z,1045.41
2017-08-06T10:18:42.042Z,1045.85
2017-08-06T10:19:22.441Z,1045.24
2017-08-06T10:20:02.864Z,1043.47
2017-08-06T10:20:43.290Z,1041.78
2017-08-06T10:21:23.641Z,1041.42
2017-08-06T10:22:04.126Z,1041.17
2017-08-06T10:22:44.974Z,1040.32
2017-08-06T10:23:25.367Z,1039.88
2017-08-06T10:24:05.737Z,1039.54
2017-08-06T10:24:46.228Z,1038.16
2017-08-06T10:25:26.701Z,1036.46
2017-08-06T10:26:07.032Z,1034.02
2017-08-06T10:26:47.425Z,1034.56
2017-08-06T10:27:28.031Z,1035.27
2017-08-06T10:28:09.122Z,1035.35
2017-08-06T10:28:49.621Z,1035.73
2017-08-06T10:29:30.038Z,1034.79
2017-08-06T10:30:10.535Z,1033.78
2017-08-06T10:30:51.005Z,1033.09
2017-08-06T10:31:31.486Z,1032.03
2017-08-06T10:32:11.806Z,1030.64
2017-08-06T10:32:52.356Z,1029.66
2017-08-06T10:33:32.794Z,1029.23
2017-08-06T10:34:13.262Z,1028.44
2017-08-06T10:34:53.722Z,1027.25
2017-08-06T10:35:34.130Z,1026.72
2017-08-06T10:36:14.519Z,1026.34
2017-08-06T10:36:54.993Z,1026.12
2017-08-06T10:37:35.348Z,1025.5
2017-08-06T10:38:15.837Z,1024.55
2017-08-06T10:38:56.199Z,1023.63
2017-08-06T10:39:36.696Z,1023.49
2017-08-06T10:40:17.185Z,1022.97
2017-08-06T10:40:57.556Z,1022.68
2017-08-06T10:41:37.985Z,1021.86
2017-08-06T10:42:18.435Z,1021.09
2017-08-06T10:42:58.880Z,1020.65
2017-08-06T10:43:39.305Z,1020.37
2017-08-06T10:44:19.791Z,1020.23
2017-08-06T10:45:00.249Z,1019.87
2017-08-06T10:45:40.650Z,1019.59
2017-08-06T10:46:21.060Z,1019.27
2017-08-06T10:47:01.409Z,1019.02
2017-08-06T10:47:41.892Z,1018.73
2017-08-06T10:48:22.313Z,1018.5
2017-08-06T10:49:02.730Z,1018.5
2017-08-06T10:49:43.107Z,1018.44
2017-08-06T10:50:23.717Z,1018.28
2017-08-06T10:51:04.122Z,1018.08
2017-08-06T10:51:45.356Z,1017.94
2017-08-06T10:52:25.010Z,1017.77
2017-08-06T10:53:05.478Z,1017.59
2017-08-06T10:53:45.849Z,1017.46
2017-08-06T10:54:26.717Z,1017.49
2017-08-06T10:55:06.749Z,1016.19
2017-08-06T10:55:47.133Z,1015.26
2017-08-06T10:56:27.543Z,1015.35
2017-08-06T10:57:08.061Z,1015.6
2017-08-06T10:57:48.517Z,1015.7
2017-08-06T10:58:28.988Z,1015.83
2017-08-06T10:59:09.426Z,1015.85
2017-08-06T10:59:49.865Z,1015.79
2017-08-06T11:00:30.437Z,1015.72
2017-08-06T11:01:10.831Z,1015.66
2017-08-06T11:01:51.330Z,1015.66
2017-08-06T11:02:31.635Z,1015.6
2017-08-06T11:03:12.066Z,1015.44
2017-08-06T11:03:52.589Z,1015.4
2017-08-06T11:04:33.065Z,1015.31
2017-08-06T11:05:13.523Z,1015.33
2017-08-06T11:05:53.917Z,1015.33
2017-08-06T11:06:34.462Z,1015.32
2017-08-06T11:07:14.860Z,1015.35
2017-08-06T11:07:55.267Z,1015.4
2017-08-06T11:08:35.734Z,1019.28
2017-08-06T11:09:16.163Z,1019.42
2017-08-06T11:09:56.601Z,1019.45
2017-08-06T11:10:36.965Z,1019.66
2017-08-06T11:11:17.479Z,1019.96
2017-08-06T11:11:57.896Z,1020.2
2017-08-06T11:12:38.307Z,1020.29
2017-08-06T11:13:18.800Z,1020.17
2017-08-06T11:13:59.278Z,1020.09
2017-08-06T11:14:39.622Z,1020.15
2017-08-06T11:15:20.092Z,1020.29
2017-08-06T11:16:00.600Z,1020.4
2017-08-06T11:16:41.157Z,1020.58
2017-08-06T11:17:21.551Z,1020.74
2017-08-06T11:18:02.080Z,1020.89
2017-08-06T11:18:42.520Z,1021.05
2017-08-06T11:19:23.025Z,1021.23
2017-08-06T11:20:03.389Z,1021.56
2017-08-06T11:20:43.794Z,1020.95
2017-08-06T11:21:24.294Z,1021.51
2017-08-06T11:22:04.737Z,1021.87
2017-08-06T11:22:45.223Z,1022.02
2017-08-06T11:23:25.655Z,1022.4
2017-08-06T11:24:06.276Z,1022.44
2017-08-06T11:24:46.670Z,1022.73
2017-08-06T11:25:26.999Z,1022.9
2017-08-06T11:26:07.474Z,1023.16
2017-08-06T11:26:48.041Z,1023.32
2017-08-06T11:27:28.405Z,1023.37
2017-08-06T11:28:08.775Z,1023.74
2017-08-06T11:28:49.248Z,1024.16
2017-08-06T11:29:29.618Z,1024.55
2017-08-06T11:30:10.150Z,1024.83
2017-08-06T11:30:50.525Z,1025.2
2017-08-06T11:31:31.140Z,1025.64
2017-08-06T11:32:11.541Z,1025.84
2017-08-06T11:32:51.993Z,1026.07
2017-08-06T11:33:32.345Z,1026.48
2017-08-06T11:34:12.847Z,1026.49
2017-08-06T11:34:53.262Z,1026.78
2017-08-06T11:35:33.783Z,1026.88
2017-08-06T11:36:14.125Z,1027.09
2017-08-06T11:36:54.502Z,1026.94
2017-08-06T11:37:34.904Z,1027.06
2017-08-06T11:38:15.395Z,1027.62
2017-08-06T11:38:55.781Z,1027.55
2017-08-06T11:39:36.308Z,1027.74